sensor_id;sensor_type;location;lat;lon;timestamp;pressure;altitude;pressure_sealevel;temperature;humidity
10460;BME280;54412;51.206;6.888;2024-03-08T00:00:41;101054.94;;;7.26;56.69
10460;BME280;54412;51.206;6.888;2024-03-08T00:03:08;101051.22;;;7.33;55.15
10460;BME280;54412;51.206;6.888;2024-03-08T00:05:36;101058.25;;;7.33;54.80
10460;BME280;54412;51.206;6.888;2024-03-08T00:08:05;101050.47;;;7.30;55.18
10460;BME280;54412;51.206;6.888;2024-03-08T00:10:31;101046.88;;;7.32;54.29
10460;BME280;54412;51.206;6.888;2024-03-08T00:12:57;101049.31;;;7.09;55.66
10460;BME280;54412;51.206;6.888;2024-03-08T00:15:23;101037.38;;;6.99;57.38
10460;BME280;54412;51.206;6.888;2024-03-08T00:17:49;101041.75;;;6.99;57.98
10460;BME280;54412;51.206;6.888;2024-03-08T00:20:16;101039.44;;;6.88;58.61
10460;BME280;54412;51.206;6.888;2024-03-08T00:22:43;101030.72;;;6.88;58.43
10460;BME280;54412;51.206;6.888;2024-03-08T00:25:09;101038.13;;;6.74;59.79
10460;BME280;54412;51.206;6.888;2024-03-08T00:27:36;101039.97;;;6.70;59.76
10460;BME280;54412;51.206;6.888;2024-03-08T00:30:03;101030.25;;;6.74;59.88
10460;BME280;54412;51.206;6.888;2024-03-08T00:32:29;101034.63;;;6.73;60.12
10460;BME280;54412;51.206;6.888;2024-03-08T00:34:54;101033.69;;;6.76;59.92
10460;BME280;54412;51.206;6.888;2024-03-08T00:37:21;101042.78;;;6.63;60.25
10460;BME280;54412;51.206;6.888;2024-03-08T00:39:51;101037.19;;;6.44;60.93
10460;BME280;54412;51.206;6.888;2024-03-08T00:42:20;101029.97;;;6.52;60.98
10460;BME280;54412;51.206;6.888;2024-03-08T00:44:47;101026.59;;;6.49;61.11
10460;BME280;54412;51.206;6.888;2024-03-08T00:47:13;101023.31;;;6.41;61.17
10460;BME280;54412;51.206;6.888;2024-03-08T00:49:41;101026.94;;;6.35;61.44
10460;BME280;54412;51.206;6.888;2024-03-08T00:52:07;101018.28;;;6.33;61.32
10460;BME280;54412;51.206;6.888;2024-03-08T00:54:34;101011.69;;;6.18;61.64
10460;BME280;54412;51.206;6.888;2024-03-08T00:57:01;101007.13;;;6.25;61.44
10460;BME280;54412;51.206;6.888;2024-03-08T00:59:34;101005.53;;;6.19;61.27
10460;BME280;54412;51.206;6.888;2024-03-08T01:02:01;101009.13;;;6.15;61.60
10460;BME280;54412;51.206;6.888;2024-03-08T01:04:27;101001.06;;;6.23;61.89
10460;BME280;54412;51.206;6.888;2024-03-08T01:06:57;101000.34;;;6.18;61.68
10460;BME280;54412;51.206;6.888;2024-03-08T01:09:26;100998.41;;;6.24;61.89
10460;BME280;54412;51.206;6.888;2024-03-08T01:11:55;100989.97;;;6.13;62.40
10460;BME280;54412;51.206;6.888;2024-03-08T01:14:23;100991.56;;;6.19;61.83
10460;BME280;54412;51.206;6.888;2024-03-08T01:16:49;100989.72;;;6.22;61.68
10460;BME280;54412;51.206;6.888;2024-03-08T01:19:15;100990.50;;;6.26;61.96
10460;BME280;54412;51.206;6.888;2024-03-08T01:21:41;100987.75;;;6.32;61.25
10460;BME280;54412;51.206;6.888;2024-03-08T01:24:08;100974.38;;;6.41;61.12
10460;BME280;54412;51.206;6.888;2024-03-08T01:26:33;100971.41;;;6.22;61.23
10460;BME280;54412;51.206;6.888;2024-03-08T01:29:02;100969.56;;;6.26;61.30
10460;BME280;54412;51.206;6.888;2024-03-08T01:31:29;100970.66;;;6.50;59.98
10460;BME280;54412;51.206;6.888;2024-03-08T01:33:59;100968.91;;;6.50;59.75
10460;BME280;54412;51.206;6.888;2024-03-08T01:36:25;100968.38;;;6.38;60.33
10460;BME280;54412;51.206;6.888;2024-03-08T01:38:52;100970.47;;;6.25;60.30
10460;BME280;54412;51.206;6.888;2024-03-08T01:41:18;100969.59;;;6.24;59.98
10460;BME280;54412;51.206;6.888;2024-03-08T01:43:44;100961.44;;;6.35;60.04
10460;BME280;54412;51.206;6.888;2024-03-08T01:46:14;100955.63;;;6.25;60.69
10460;BME280;54412;51.206;6.888;2024-03-08T01:48:42;100949.59;;;6.22;61.23
10460;BME280;54412;51.206;6.888;2024-03-08T01:51:09;100952.97;;;6.27;61.45
10460;BME280;54412;51.206;6.888;2024-03-08T01:53:35;100957.31;;;6.26;59.38
10460;BME280;54412;51.206;6.888;2024-03-08T01:56:02;100950.28;;;6.28;59.97
10460;BME280;54412;51.206;6.888;2024-03-08T01:58:29;100945.53;;;6.43;58.36
10460;BME280;54412;51.206;6.888;2024-03-08T02:00:57;100944.22;;;6.26;59.77
10460;BME280;54412;51.206;6.888;2024-03-08T02:03:23;100947.75;;;6.25;59.26
10460;BME280;54412;51.206;6.888;2024-03-08T02:05:49;100940.38;;;6.40;58.48
10460;BME280;54412;51.206;6.888;2024-03-08T02:08:15;100941.06;;;6.46;58.49
10460;BME280;54412;51.206;6.888;2024-03-08T02:10:44;100938.16;;;6.55;58.59
10460;BME280;54412;51.206;6.888;2024-03-08T02:13:10;100928.50;;;6.57;58.68
10460;BME280;54412;51.206;6.888;2024-03-08T02:18:19;100929.28;;;6.61;58.33
10460;BME280;54412;51.206;6.888;2024-03-08T02:20:47;100920.34;;;6.39;59.08
10460;BME280;54412;51.206;6.888;2024-03-08T02:23:14;100920.44;;;6.34;59.87
10460;BME280;54412;51.206;6.888;2024-03-08T02:25:40;100922.69;;;6.17;60.25
10460;BME280;54412;51.206;6.888;2024-03-08T02:28:12;100917.25;;;6.54;58.31
10460;BME280;54412;51.206;6.888;2024-03-08T02:30:38;100910.28;;;6.23;59.75
10460;BME280;54412;51.206;6.888;2024-03-08T02:33:07;100917.47;;;6.17;60.42
10460;BME280;54412;51.206;6.888;2024-03-08T02:35:35;100917.06;;;6.30;60.31
10460;BME280;54412;51.206;6.888;2024-03-08T02:38:04;100912.84;;;6.25;61.20
10460;BME280;54412;51.206;6.888;2024-03-08T02:40:30;100908.06;;;6.08;60.68
10460;BME280;54412;51.206;6.888;2024-03-08T02:42:56;100902.97;;;6.34;60.65
10460;BME280;54412;51.206;6.888;2024-03-08T02:45:21;100899.31;;;6.09;61.68
10460;BME280;54412;51.206;6.888;2024-03-08T02:47:47;100890.19;;;6.22;61.20
10460;BME280;54412;51.206;6.888;2024-03-08T02:50:15;100889.22;;;5.96;60.98
10460;BME280;54412;51.206;6.888;2024-03-08T02:52:44;100893.31;;;6.06;61.28
10460;BME280;54412;51.206;6.888;2024-03-08T02:55:11;100887.81;;;6.15;59.02
10460;BME280;54412;51.206;6.888;2024-03-08T02:57:40;100881.78;;;6.13;60.59
10460;BME280;54412;51.206;6.888;2024-03-08T03:00:07;100880.19;;;6.07;60.95
10460;BME280;54412;51.206;6.888;2024-03-08T03:02:36;100873.00;;;6.14;61.13
10460;BME280;54412;51.206;6.888;2024-03-08T03:05:03;100878.38;;;6.09;61.39
10460;BME280;54412;51.206;6.888;2024-03-08T03:07:33;100867.19;;;6.03;62.19
10460;BME280;54412;51.206;6.888;2024-03-08T03:09:59;100868.31;;;5.94;62.04
10460;BME280;54412;51.206;6.888;2024-03-08T03:12:29;100865.84;;;5.88;62.44
10460;BME280;54412;51.206;6.888;2024-03-08T03:14:56;100867.13;;;5.72;63.06
10460;BME280;54412;51.206;6.888;2024-03-08T03:17:23;100866.56;;;5.95;62.37
10460;BME280;54412;51.206;6.888;2024-03-08T03:19:50;100867.59;;;5.89;62.49
10460;BME280;54412;51.206;6.888;2024-03-08T03:22:18;100864.41;;;5.77;63.34
10460;BME280;54412;51.206;6.888;2024-03-08T03:24:44;100860.81;;;5.81;63.08
10460;BME280;54412;51.206;6.888;2024-03-08T03:27:12;100856.75;;;5.69;63.53
10460;BME280;54412;51.206;6.888;2024-03-08T03:29:43;100850.97;;;5.90;63.05
10460;BME280;54412;51.206;6.888;2024-03-08T03:32:12;100852.75;;;5.88;62.67
10460;BME280;54412;51.206;6.888;2024-03-08T03:34:39;100845.63;;;5.95;62.01
10460;BME280;54412;51.206;6.888;2024-03-08T03:37:06;100851.56;;;5.68;63.07
10460;BME280;54412;51.206;6.888;2024-03-08T03:39:34;100849.91;;;5.64;63.16
10460;BME280;54412;51.206;6.888;2024-03-08T03:42:00;100843.03;;;5.60;62.96
10460;BME280;54412;51.206;6.888;2024-03-08T03:44:28;100848.09;;;5.33;63.71
10460;BME280;54412;51.206;6.888;2024-03-08T03:46:54;100851.28;;;5.78;61.54
10460;BME280;54412;51.206;6.888;2024-03-08T03:49:20;100843.72;;;5.68;62.37
10460;BME280;54412;51.206;6.888;2024-03-08T03:51:46;100858.16;;;5.82;60.85
10460;BME280;54412;51.206;6.888;2024-03-08T03:54:12;100843.63;;;6.04;58.45
10460;BME280;54412;51.206;6.888;2024-03-08T03:56:38;100845.00;;;6.16;57.69
10460;BME280;54412;51.206;6.888;2024-03-08T03:59:06;100846.91;;;6.11;58.76
10460;BME280;54412;51.206;6.888;2024-03-08T04:01:33;100843.22;;;5.87;59.30
10460;BME280;54412;51.206;6.888;2024-03-08T04:03:59;100836.75;;;6.00;60.27
10460;BME280;54412;51.206;6.888;2024-03-08T04:06:25;100837.50;;;6.04;60.67
10460;BME280;54412;51.206;6.888;2024-03-08T04:08:50;100835.34;;;5.87;60.32
10460;BME280;54412;51.206;6.888;2024-03-08T04:11:16;100840.09;;;5.73;60.23
10460;BME280;54412;51.206;6.888;2024-03-08T04:13:43;100830.94;;;5.89;60.92
10460;BME280;54412;51.206;6.888;2024-03-08T04:16:09;100831.69;;;5.61;61.36
10460;BME280;54412;51.206;6.888;2024-03-08T04:18:37;100829.31;;;5.85;61.89
10460;BME280;54412;51.206;6.888;2024-03-08T04:21:05;100828.41;;;5.86;60.21
10460;BME280;54412;51.206;6.888;2024-03-08T04:23:33;100827.72;;;5.78;60.31
10460;BME280;54412;51.206;6.888;2024-03-08T04:26:02;100833.94;;;6.06;58.42
10460;BME280;54412;51.206;6.888;2024-03-08T04:28:30;100826.34;;;5.97;58.94
10460;BME280;54412;51.206;6.888;2024-03-08T04:30:56;100827.81;;;6.07;58.36
10460;BME280;54412;51.206;6.888;2024-03-08T04:33:21;100822.06;;;5.95;59.31
10460;BME280;54412;51.206;6.888;2024-03-08T04:35:49;100822.22;;;5.89;59.54
10460;BME280;54412;51.206;6.888;2024-03-08T04:38:15;100818.06;;;5.80;60.52
10460;BME280;54412;51.206;6.888;2024-03-08T04:40:41;100818.94;;;5.81;61.16
10460;BME280;54412;51.206;6.888;2024-03-08T04:43:07;100812.94;;;5.77;60.55
10460;BME280;54412;51.206;6.888;2024-03-08T04:45:34;100822.09;;;5.93;58.87
10460;BME280;54412;51.206;6.888;2024-03-08T04:48:00;100817.44;;;6.04;58.40
10460;BME280;54412;51.206;6.888;2024-03-08T04:50:25;100814.63;;;5.78;58.38
10460;BME280;54412;51.206;6.888;2024-03-08T04:52:55;100809.44;;;5.77;59.57
10460;BME280;54412;51.206;6.888;2024-03-08T04:55:20;100810.97;;;5.85;59.14
10460;BME280;54412;51.206;6.888;2024-03-08T04:57:48;100803.53;;;6.01;59.46
10460;BME280;54412;51.206;6.888;2024-03-08T05:00:14;100812.91;;;6.09;58.91
10460;BME280;54412;51.206;6.888;2024-03-08T05:02:41;100798.84;;;5.83;59.26
10460;BME280;54412;51.206;6.888;2024-03-08T05:05:08;100798.84;;;5.83;60.03
10460;BME280;54412;51.206;6.888;2024-03-08T05:07:36;100790.53;;;5.98;59.65
10460;BME280;54412;51.206;6.888;2024-03-08T05:10:01;100794.91;;;5.97;58.57
10460;BME280;54412;51.206;6.888;2024-03-08T05:12:28;100800.50;;;5.85;59.52
10460;BME280;54412;51.206;6.888;2024-03-08T05:14:54;100787.22;;;5.93;58.75
10460;BME280;54412;51.206;6.888;2024-03-08T05:17:20;100788.31;;;6.15;57.95
10460;BME280;54412;51.206;6.888;2024-03-08T05:19:46;100785.72;;;6.13;58.27
10460;BME280;54412;51.206;6.888;2024-03-08T05:22:12;100776.38;;;6.05;58.51
10460;BME280;54412;51.206;6.888;2024-03-08T05:24:38;100777.09;;;6.10;58.39
10460;BME280;54412;51.206;6.888;2024-03-08T05:27:04;100781.28;;;6.15;58.26
10460;BME280;54412;51.206;6.888;2024-03-08T05:29:30;100782.03;;;5.91;58.99
10460;BME280;54412;51.206;6.888;2024-03-08T05:31:56;100778.06;;;6.07;58.16
10460;BME280;54412;51.206;6.888;2024-03-08T05:34:23;100768.41;;;6.09;58.62
10460;BME280;54412;51.206;6.888;2024-03-08T05:36:49;100776.44;;;6.03;58.97
10460;BME280;54412;51.206;6.888;2024-03-08T05:39:17;100771.34;;;5.97;59.02
10460;BME280;54412;51.206;6.888;2024-03-08T05:41:44;100772.34;;;6.22;58.16
10460;BME280;54412;51.206;6.888;2024-03-08T05:44:10;100765.44;;;5.91;59.23
10460;BME280;54412;51.206;6.888;2024-03-08T05:46:37;100757.38;;;5.98;59.58
10460;BME280;54412;51.206;6.888;2024-03-08T05:49:04;100757.56;;;6.21;58.75
10460;BME280;54412;51.206;6.888;2024-03-08T05:51:37;100759.19;;;6.25;58.60
10460;BME280;54412;51.206;6.888;2024-03-08T05:54:10;100760.75;;;6.02;59.39
10460;BME280;54412;51.206;6.888;2024-03-08T05:56:38;100752.94;;;6.29;59.83
10460;BME280;54412;51.206;6.888;2024-03-08T05:59:04;100751.81;;;6.64;61.24
10460;BME280;54412;51.206;6.888;2024-03-08T06:01:30;100749.16;;;6.66;61.50
10460;BME280;54412;51.206;6.888;2024-03-08T06:03:56;100751.69;;;6.69;58.85
10460;BME280;54412;51.206;6.888;2024-03-08T06:06:26;100752.06;;;6.57;57.76
10460;BME280;54412;51.206;6.888;2024-03-08T06:08:52;100750.69;;;6.73;59.17
10460;BME280;54412;51.206;6.888;2024-03-08T06:11:20;100751.69;;;6.69;58.74
10460;BME280;54412;51.206;6.888;2024-03-08T06:13:46;100748.78;;;6.50;58.84
10460;BME280;54412;51.206;6.888;2024-03-08T06:16:12;100754.69;;;6.57;59.15
10460;BME280;54412;51.206;6.888;2024-03-08T06:18:38;100752.69;;;6.65;58.71
10460;BME280;54412;51.206;6.888;2024-03-08T06:21:07;100747.25;;;6.97;59.36
10460;BME280;54412;51.206;6.888;2024-03-08T06:23:39;100761.91;;;6.50;58.28
10460;BME280;54412;51.206;6.888;2024-03-08T06:26:05;100752.97;;;6.56;58.04
10460;BME280;54412;51.206;6.888;2024-03-08T06:28:31;100758.56;;;6.45;58.17
10460;BME280;54412;51.206;6.888;2024-03-08T06:30:59;100750.38;;;6.56;58.15
10460;BME280;54412;51.206;6.888;2024-03-08T06:33:25;100756.00;;;6.44;58.53
10460;BME280;54412;51.206;6.888;2024-03-08T06:35:54;100749.78;;;6.18;59.39
10460;BME280;54412;51.206;6.888;2024-03-08T06:38:25;100754.81;;;6.24;59.16
10460;BME280;54412;51.206;6.888;2024-03-08T06:40:52;100758.63;;;6.14;59.58
10460;BME280;54412;51.206;6.888;2024-03-08T06:43:18;100751.50;;;6.19;59.65
10460;BME280;54412;51.206;6.888;2024-03-08T06:45:47;100757.22;;;6.32;59.48
10460;BME280;54412;51.206;6.888;2024-03-08T06:48:17;100748.78;;;6.22;59.19
10460;BME280;54412;51.206;6.888;2024-03-08T06:50:47;100757.13;;;6.35;59.07
10460;BME280;54412;51.206;6.888;2024-03-08T06:53:13;100751.00;;;6.36;59.25
10460;BME280;54412;51.206;6.888;2024-03-08T06:55:40;100756.13;;;6.39;59.16
10460;BME280;54412;51.206;6.888;2024-03-08T06:58:06;100751.34;;;6.52;58.96
10460;BME280;54412;51.206;6.888;2024-03-08T07:00:37;100748.75;;;6.52;59.03
10460;BME280;54412;51.206;6.888;2024-03-08T07:03:03;100755.56;;;6.29;59.94
10460;BME280;54412;51.206;6.888;2024-03-08T07:05:30;100741.78;;;6.51;59.19
10460;BME280;54412;51.206;6.888;2024-03-08T07:07:56;100751.00;;;6.64;58.83
10460;BME280;54412;51.206;6.888;2024-03-08T07:10:22;100749.44;;;6.57;59.19
10460;BME280;54412;51.206;6.888;2024-03-08T07:12:52;100747.50;;;6.63;59.20
10460;BME280;54412;51.206;6.888;2024-03-08T07:15:18;100741.91;;;6.74;58.99
10460;BME280;54412;51.206;6.888;2024-03-08T07:17:45;100746.03;;;6.81;58.66
10460;BME280;54412;51.206;6.888;2024-03-08T07:20:15;100744.59;;;6.72;58.96
10460;BME280;54412;51.206;6.888;2024-03-08T07:22:48;100742.41;;;6.59;59.13
10460;BME280;54412;51.206;6.888;2024-03-08T07:25:16;100743.78;;;6.70;58.72
10460;BME280;54412;51.206;6.888;2024-03-08T07:27:53;100740.50;;;6.64;59.36
10460;BME280;54412;51.206;6.888;2024-03-08T07:30:22;100729.06;;;6.92;58.60
10460;BME280;54412;51.206;6.888;2024-03-08T07:33:06;100732.97;;;7.05;58.09
10460;BME280;54412;51.206;6.888;2024-03-08T07:35:38;100733.59;;;6.87;58.20
10460;BME280;54412;51.206;6.888;2024-03-08T07:38:05;100725.72;;;6.87;58.73
10460;BME280;54412;51.206;6.888;2024-03-08T07:40:35;100717.84;;;7.13;58.25
10460;BME280;54412;51.206;6.888;2024-03-08T07:43:01;100723.41;;;7.29;58.31
10460;BME280;54412;51.206;6.888;2024-03-08T07:45:27;100714.41;;;7.36;57.69
10460;BME280;54412;51.206;6.888;2024-03-08T07:47:53;100712.28;;;7.70;57.05
10460;BME280;54412;51.206;6.888;2024-03-08T07:50:19;100714.59;;;8.01;56.22
10460;BME280;54412;51.206;6.888;2024-03-08T07:52:45;100710.09;;;8.04;55.60
10460;BME280;54412;51.206;6.888;2024-03-08T07:55:10;100700.34;;;8.31;54.60
10460;BME280;54412;51.206;6.888;2024-03-08T07:57:36;100699.34;;;8.10;54.79
10460;BME280;54412;51.206;6.888;2024-03-08T08:00:05;100704.75;;;8.07;55.21
10460;BME280;54412;51.206;6.888;2024-03-08T08:02:34;100695.75;;;8.58;54.56
10460;BME280;54412;51.206;6.888;2024-03-08T08:05:01;100697.63;;;8.76;53.64
10460;BME280;54412;51.206;6.888;2024-03-08T08:07:27;100693.47;;;8.70;53.83
10460;BME280;54412;51.206;6.888;2024-03-08T08:09:53;100683.13;;;8.44;53.69
10460;BME280;54412;51.206;6.888;2024-03-08T08:12:19;100688.09;;;8.52;53.23
10460;BME280;54412;51.206;6.888;2024-03-08T08:14:45;100682.31;;;8.64;53.22
10460;BME280;54412;51.206;6.888;2024-03-08T08:17:10;100673.03;;;8.55;53.19
10460;BME280;54412;51.206;6.888;2024-03-08T08:19:37;100669.94;;;8.45;54.01
10460;BME280;54412;51.206;6.888;2024-03-08T08:22:04;100670.47;;;8.95;52.75
10460;BME280;54412;51.206;6.888;2024-03-08T08:24:30;100666.06;;;8.96;52.95
10460;BME280;54412;51.206;6.888;2024-03-08T08:26:56;100662.38;;;9.00;52.54
10460;BME280;54412;51.206;6.888;2024-03-08T08:29:21;100663.63;;;9.11;51.50
10460;BME280;54412;51.206;6.888;2024-03-08T08:31:48;100645.59;;;9.22;51.56
10460;BME280;54412;51.206;6.888;2024-03-08T08:34:16;100650.63;;;9.84;50.92
10460;BME280;54412;51.206;6.888;2024-03-08T08:36:44;100652.00;;;9.93;50.21
10460;BME280;54412;51.206;6.888;2024-03-08T08:39:10;100634.97;;;9.81;49.92
10460;BME280;54412;51.206;6.888;2024-03-08T08:41:39;100643.16;;;9.75;49.22
10460;BME280;54412;51.206;6.888;2024-03-08T08:44:07;100637.19;;;9.72;50.29
10460;BME280;54412;51.206;6.888;2024-03-08T08:46:36;100641.97;;;9.64;49.25
10460;BME280;54412;51.206;6.888;2024-03-08T08:49:03;100631.63;;;9.59;49.72
10460;BME280;54412;51.206;6.888;2024-03-08T08:51:30;100631.25;;;10.04;48.88
10460;BME280;54412;51.206;6.888;2024-03-08T08:53:56;100628.28;;;10.11;48.08
10460;BME280;54412;51.206;6.888;2024-03-08T08:56:22;100629.66;;;10.37;48.20
10460;BME280;54412;51.206;6.888;2024-03-08T08:58:48;100619.38;;;10.67;47.65
10460;BME280;54412;51.206;6.888;2024-03-08T09:01:14;100607.88;;;11.02;47.53
10460;BME280;54412;51.206;6.888;2024-03-08T09:03:40;100613.94;;;11.04;48.91
10460;BME280;54412;51.206;6.888;2024-03-08T09:06:07;100601.56;;;11.37;49.03
10460;BME280;54412;51.206;6.888;2024-03-08T09:08:36;100612.50;;;11.46;48.21
10460;BME280;54412;51.206;6.888;2024-03-08T09:11:03;100607.66;;;10.89;46.54
10460;BME280;54412;51.206;6.888;2024-03-08T09:13:29;100614.72;;;11.38;46.40
10460;BME280;54412;51.206;6.888;2024-03-08T09:15:56;100602.34;;;11.39;44.97
10460;BME280;54412;51.206;6.888;2024-03-08T09:18:22;100600.94;;;10.99;45.27
10460;BME280;54412;51.206;6.888;2024-03-08T09:20:48;100598.81;;;11.23;45.71
10460;BME280;54412;51.206;6.888;2024-03-08T09:23:14;100601.47;;;11.71;44.88
10460;BME280;54412;51.206;6.888;2024-03-08T09:25:40;100600.72;;;12.16;44.34
10460;BME280;54412;51.206;6.888;2024-03-08T09:28:06;100600.88;;;11.66;43.69
10460;BME280;54412;51.206;6.888;2024-03-08T09:30:32;100595.28;;;11.72;44.44
10460;BME280;54412;51.206;6.888;2024-03-08T09:32:57;100600.09;;;12.11;43.09
10460;BME280;54412;51.206;6.888;2024-03-08T09:35:23;100601.16;;;11.44;43.65
10460;BME280;54412;51.206;6.888;2024-03-08T09:37:50;100591.66;;;11.57;43.89
10460;BME280;54412;51.206;6.888;2024-03-08T09:40:17;100600.84;;;11.50;43.34
10460;BME280;54412;51.206;6.888;2024-03-08T09:42:47;100583.56;;;11.28;43.68
10460;BME280;54412;51.206;6.888;2024-03-08T09:45:13;100582.16;;;11.71;43.02
10460;BME280;54412;51.206;6.888;2024-03-08T09:47:44;100588.97;;;11.75;42.96
10460;BME280;54412;51.206;6.888;2024-03-08T09:50:11;100568.28;;;11.50;43.63
10460;BME280;54412;51.206;6.888;2024-03-08T09:52:41;100561.59;;;12.36;42.77
10460;BME280;54412;51.206;6.888;2024-03-08T09:55:10;100569.00;;;12.45;41.84
10460;BME280;54412;51.206;6.888;2024-03-08T09:57:40;100552.19;;;12.17;42.36
10460;BME280;54412;51.206;6.888;2024-03-08T10:00:06;100554.84;;;12.46;42.15
10460;BME280;54412;51.206;6.888;2024-03-08T10:02:46;100573.53;;;12.73;42.48
10460;BME280;54412;51.206;6.888;2024-03-08T10:05:13;100546.03;;;12.46;41.99
10460;BME280;54412;51.206;6.888;2024-03-08T10:07:40;100563.03;;;11.97;41.96
10460;BME280;54412;51.206;6.888;2024-03-08T10:10:06;100539.53;;;11.92;42.44
10460;BME280;54412;51.206;6.888;2024-03-08T10:12:34;100545.09;;;12.17;41.99
10460;BME280;54412;51.206;6.888;2024-03-08T10:15:00;100551.78;;;12.09;41.02
10460;BME280;54412;51.206;6.888;2024-03-08T10:17:27;100548.22;;;11.79;41.85
10460;BME280;54412;51.206;6.888;2024-03-08T10:19:57;100536.09;;;11.90;42.36
10460;BME280;54412;51.206;6.888;2024-03-08T10:22:26;100531.50;;;11.47;42.62
10460;BME280;54412;51.206;6.888;2024-03-08T10:24:52;100525.16;;;11.96;42.02
10460;BME280;54412;51.206;6.888;2024-03-08T10:27:18;100517.63;;;12.20;41.34
10460;BME280;54412;51.206;6.888;2024-03-08T10:29:48;100519.88;;;11.96;41.78
10460;BME280;54412;51.206;6.888;2024-03-08T10:32:15;100510.53;;;11.91;41.14
10460;BME280;54412;51.206;6.888;2024-03-08T10:34:41;100510.22;;;12.40;41.19
10460;BME280;54412;51.206;6.888;2024-03-08T10:37:14;100510.69;;;12.47;40.57
10460;BME280;54412;51.206;6.888;2024-03-08T10:39:55;100505.53;;;12.16;40.75
10460;BME280;54412;51.206;6.888;2024-03-08T10:42:29;100503.63;;;12.47;39.68
10460;BME280;54412;51.206;6.888;2024-03-08T10:45:36;100494.28;;;12.70;39.82
10460;BME280;54412;51.206;6.888;2024-03-08T10:48:33;100496.47;;;12.63;39.94
10460;BME280;54412;51.206;6.888;2024-03-08T10:51:03;100496.78;;;13.01;39.18
10460;BME280;54412;51.206;6.888;2024-03-08T10:53:30;100477.22;;;13.18;39.69
10460;BME280;54412;51.206;6.888;2024-03-08T10:55:59;100473.75;;;13.85;38.66
10460;BME280;54412;51.206;6.888;2024-03-08T10:58:27;100468.94;;;13.77;38.31
10460;BME280;54412;51.206;6.888;2024-03-08T11:00:56;100468.22;;;13.34;38.75
10460;BME280;54412;51.206;6.888;2024-03-08T11:06:18;100470.63;;;13.51;37.43
10460;BME280;54412;51.206;6.888;2024-03-08T11:08:48;100441.72;;;13.34;37.82
10460;BME280;54412;51.206;6.888;2024-03-08T11:11:31;100451.91;;;13.40;37.56
10460;BME280;54412;51.206;6.888;2024-03-08T11:13:58;100447.69;;;13.64;37.63
10460;BME280;54412;51.206;6.888;2024-03-08T11:19:24;100433.16;;;13.97;36.16
10460;BME280;54412;51.206;6.888;2024-03-08T11:22:01;100439.63;;;14.32;36.20
10460;BME280;54412;51.206;6.888;2024-03-08T11:24:28;100432.38;;;14.34;35.97
10460;BME280;54412;51.206;6.888;2024-03-08T11:27:03;100448.63;;;13.90;36.04
10460;BME280;54412;51.206;6.888;2024-03-08T11:32:16;100423.06;;;13.89;37.37
10460;BME280;54412;51.206;6.888;2024-03-08T11:34:49;100420.69;;;14.87;36.45
10460;BME280;54412;51.206;6.888;2024-03-08T11:37:18;100411.78;;;15.24;36.31
10460;BME280;54412;51.206;6.888;2024-03-08T11:39:53;100406.59;;;14.48;36.26
10460;BME280;54412;51.206;6.888;2024-03-08T11:42:25;100402.19;;;14.98;35.47
10460;BME280;54412;51.206;6.888;2024-03-08T11:44:54;100412.44;;;15.51;35.18
10460;BME280;54412;51.206;6.888;2024-03-08T11:47:21;100397.28;;;15.04;35.75
10460;BME280;54412;51.206;6.888;2024-03-08T11:49:47;100398.22;;;15.16;35.25
10460;BME280;54412;51.206;6.888;2024-03-08T11:52:17;100392.94;;;15.03;35.73
10460;BME280;54412;51.206;6.888;2024-03-08T11:54:52;100392.34;;;15.59;34.77
10460;BME280;54412;51.206;6.888;2024-03-08T11:57:22;100384.72;;;15.90;34.27
10460;BME280;54412;51.206;6.888;2024-03-08T11:59:52;100392.16;;;15.50;35.10
10460;BME280;54412;51.206;6.888;2024-03-08T12:02:18;100382.91;;;15.19;34.17
10460;BME280;54412;51.206;6.888;2024-03-08T12:04:47;100389.19;;;14.70;34.43
10460;BME280;54412;51.206;6.888;2024-03-08T12:07:13;100369.53;;;15.08;37.15
10460;BME280;54412;51.206;6.888;2024-03-08T12:09:42;100373.91;;;15.33;34.80
10460;BME280;54412;51.206;6.888;2024-03-08T12:12:12;100369.19;;;15.49;36.20
10460;BME280;54412;51.206;6.888;2024-03-08T12:14:43;100367.69;;;16.03;33.96
10460;BME280;54412;51.206;6.888;2024-03-08T12:17:10;100358.34;;;15.52;33.85
10460;BME280;54412;51.206;6.888;2024-03-08T12:19:36;100361.75;;;15.54;33.82
10460;BME280;54412;51.206;6.888;2024-03-08T12:22:09;100359.25;;;15.27;33.72
10460;BME280;54412;51.206;6.888;2024-03-08T12:24:35;100349.22;;;15.20;33.63
10460;BME280;54412;51.206;6.888;2024-03-08T12:27:18;100340.19;;;15.46;33.15
10460;BME280;54412;51.206;6.888;2024-03-08T12:29:45;100341.44;;;15.17;33.09
10460;BME280;54412;51.206;6.888;2024-03-08T12:32:10;100332.88;;;15.37;33.22
10460;BME280;54412;51.206;6.888;2024-03-08T12:34:37;100330.84;;;15.40;32.51
10460;BME280;54412;51.206;6.888;2024-03-08T12:37:02;100328.75;;;15.56;33.16
10460;BME280;54412;51.206;6.888;2024-03-08T12:39:30;100324.38;;;15.32;32.80
10460;BME280;54412;51.206;6.888;2024-03-08T12:41:56;100324.88;;;15.37;33.28
10460;BME280;54412;51.206;6.888;2024-03-08T12:44:25;100314.25;;;15.37;33.69
10460;BME280;54412;51.206;6.888;2024-03-08T12:46:51;100325.25;;;15.09;32.89
10460;BME280;54412;51.206;6.888;2024-03-08T12:49:20;100313.06;;;14.94;33.50
10460;BME280;54412;51.206;6.888;2024-03-08T12:51:48;100317.19;;;14.61;33.94
10460;BME280;54412;51.206;6.888;2024-03-08T12:54:14;100316.25;;;14.50;34.00
10460;BME280;54412;51.206;6.888;2024-03-08T12:56:40;100300.94;;;14.79;33.88
10460;BME280;54412;51.206;6.888;2024-03-08T12:59:07;100296.84;;;15.33;33.78
10460;BME280;54412;51.206;6.888;2024-03-08T13:01:34;100299.41;;;14.87;33.32
10460;BME280;54412;51.206;6.888;2024-03-08T13:04:03;100293.31;;;14.98;33.96
10460;BME280;54412;51.206;6.888;2024-03-08T13:06:29;100305.28;;;15.27;33.03
10460;BME280;54412;51.206;6.888;2024-03-08T13:08:57;100285.94;;;14.78;33.48
10460;BME280;54412;51.206;6.888;2024-03-08T13:11:24;100296.00;;;14.85;33.27